Tiempo atmosférico en la estación meteorológica de Valleseco, Las Palmas (900 m.)



Fecha
DESCASC
Temp. máxima en grados centígrados (hora)
DESCASC
Temp. mínima en grados centígrados (hora)
DESCASC
Temp. media en grados centígrados
DESCASC
Racha de viento máxima en m/sg (hora)
DESCASC
Velocidad máxima media en intervalos de 10 minutos(hora)
DESCASC
Precipitaciones diarias en mm
DESCASC
Precipitaciones de 00:00 a 06:00 en mm
DESCASC
Precipitaciones de 06:00 a 12:00 en mm
DESCASC
Precipitaciones de 12:00 a 18:00 en mm
DESCASC
Precipitaciones de 18:00 a 24:00 en mm
DESCASC
22-04-2019 18.9 (15:50) 9.4 (04:30) 14.1 9.17 (05:20) 6.39 (05:50) 0 0 0 0 0
21-04-2019 16.7 (13:50) 9.1 (08:00) 12.9 8.33 (00:30) 5 (23:50) 2 1.6 0.4 0 0
20-04-2019 13.4 (14:40) 8.9 (04:30) 11.1 10.56 (10:50) 5.83 (10:50) 5.2 0 3.8 0.4 1
19-04-2019 16.8 (17:00) 8.4 (04:10) 12.6 9.72 (01:10) 5.28 (03:20) 0 0 0 0 0
18-04-2019 14.2 (14:40) 9.4 (00:00) 11.8 8.61 (21:50) 5.28 (01:00) 0.6 0.2 0.2 0.2 0
17-04-2019 18.7 (11:20) 9.2 (00:00) 14 8.06 (17:20) 4.17 (23:10) 4.2 0 0 3.6 0.6
16-04-2019 21.7 (13:10) 9.7 (00:00) 15.7 8.06 (02:00) 6.11 (02:00) 0 0 0 0 0
15-04-2019 20.5 (14:30) 9.2 (00:00) 14.8 8.33 (02:50) 5.83 (02:50) 0 0 0 0 0
14-04-2019 23.4 (11:20) 8.7 (00:00) 16 7.78 (08:20) 5.83 (06:40) 0 0 0 0 0
13-04-2019 21.1 (16:10) 9.3 (00:00) 15.2 5.83 (04:20) 3.06 (13:30) 0 0 0 0 0
12-04-2019 16.2 (16:10) 8.5 (00:00) 12.4 7.22 (06:00) 3.61 (16:40) 0.6 0.4 0.2 0 0
11-04-2019 15.3 (15:20) 8.6 (00:00) 12 8.06 (22:40) 4.72 (22:20) 0.2 0 0 0 0.2
10-04-2019 14.5 (13:50) 8.3 (00:00) 11.4 6.67 (15:50) 3.61 (15:50) 0.2 0 0.2 0 0
09-04-2019 17 (11:30) 8.3 (00:00) 12.7 6.67 (14:00) 3.33 (14:00) 3.8 0 0 3.8 0
08-04-2019 16.9 (16:40) 9 (00:00) 12.9 6.11 (13:40) 3.61 (16:50) 0.8 0 0.8 0 0
07-04-2019 16.9 (14:40) 8 (00:00) 12.4 6.94 (16:10) 4.17 (15:00) 0 0 0 0 0
06-04-2019 15.1 (16:50) 7.5 (00:00) 11.3 12.22 (02:10) 7.22 (02:10) 2 1.4 0.4 0 0.2
05-04-2019 16.3 (15:50) 7.7 (00:00) 12 13.06 (19:10) 7.22 (21:20) 4 1.4 0.4 0.6 1.6
04-04-2019 14.2 (14:20) 8 (00:00) 11.1 8.61 (18:40) 5 (18:40) 11.2 7.2 1.6 0.2 2.2
03-04-2019 14.7 (17:20) 8.9 (00:00) 11.8 7.5 (12:40) 4.72 (12:40) 5 0 0 2.8 2.2
02-04-2019 18.5 (11:40) 8 (00:00) 13.3 7.78 (05:20) 6.11 (04:30) 1 0 0 0.2 0.8
01-04-2019 16.6 (11:10) 8.1 (00:00) 12.4 5 (02:40) 3.33 (01:00) 1 0.4 0 0.6 0
31-03-2019 18 (12:50) 7.4 (00:00) 12.7 7.5 (08:40) 4.72 (08:40) 0 0 0 0 0
30-03-2019 16.6 (15:30) 7.8 (00:00) 12.2 6.39 (14:30) 3.33 (07:50) 1.8 0 1.8 0 0
29-03-2019 16.3 (10:00) 6.3 (00:00) 11.3 5.28 (22:00) 3.33 (06:50) 0.4 0 0 0.4 0
28-03-2019 19.1 (10:50) 7.6 (00:00) 13.4 5.28 (10:00) 2.78 (07:10) 16 0 0.2 10.2 5.6
27-03-2019 16 (12:10) 9.3 (00:00) 12.7 6.67 (02:50) 4.44 (00:40) 0.4 0.2 0.2 0 0
26-03-2019 16.7 (16:00) 7.7 (00:00) 12.2 6.67 (23:10) 4.44 (22:20) 1.2 0 0.8 0.4 0
25-03-2019 17 (11:20) 7.1 (00:00) 12 7.22 (17:10) 5.28 (17:00) 7.6 0 0 7.6 0

Gráficas

Temp. máximas Temp. mínimas Temp. medias Precipitaciones Rachas de viento máximas Velocidades máximas media en intervalos de 10 minutos

Datos horarios

Fecha y hora oficial Temperatura (ºC) Velocidad del viento (km/h) Dirección del viento Racha (km/h) Dirección de racha Precipitación (mm) Presión (hPa) Tendencia (hPa) Humedad (%)
2019-04-23 23:00:00 9.8 12 Oeste 22 Oeste 0.2 -- -- 100
2019-04-23 22:00:00 9.7 11 Noroeste 25 Oeste 0 -- -- 100
2019-04-23 21:00:00 9.9 14 Noroeste 27 Noroeste 0 -- -- 99
2019-04-23 20:00:00 10.1 14 Noroeste 26 Noroeste 0 -- -- 99
2019-04-23 19:00:00 10.3 15 Noroeste 29 Oeste 0 -- -- 99
2019-04-23 18:00:00 10.4 18 Noroeste 31 Oeste 0.2 -- -- 99
2019-04-23 17:00:00 11 18 Noroeste 32 Oeste 0.6 -- -- 98
2019-04-23 16:00:00 12.2 14 Noroeste 26 Noroeste 1 -- -- 97
2019-04-23 15:00:00 13.2 11 Noroeste 30 Noroeste 1.2 -- -- 95
2019-04-23 14:00:00 16.7 15 Noroeste 35 Noroeste 0 -- -- 79
2019-04-23 13:00:00 17.7 18 Noroeste 32 Noroeste 0 -- -- 64
2019-04-23 12:00:00 17.1 15 Noroeste 31 Oeste 0 -- -- 65
2019-04-23 11:00:00 14 14 Noroeste 35 Oeste 0 -- -- 79
2019-04-23 10:00:00 12.1 19 Noroeste 31 Noroeste 0 -- -- 93
2019-04-23 09:00:00 11.1 14 Noroeste 33 Oeste 0 -- -- 98
2019-04-23 08:00:00 10.6 22 Oeste 37 Oeste 0 -- -- 97
2019-04-23 07:00:00 10.6 20 Noroeste 39 Oeste 0 -- -- 97
2019-04-23 06:00:00 10.6 22 Oeste 40 Oeste 0 -- -- 95
2019-04-23 05:00:00 10.4 22 Noroeste 35 Oeste 0 -- -- 98
2019-04-23 04:00:00 10.8 23 Oeste 37 Oeste 0 -- -- 97
2019-04-23 03:00:00 10.5 23 Noroeste 39 Oeste 0 -- -- 98
2019-04-23 02:00:00 10.8 22 Noroeste 39 Oeste 0 -- -- 98
2019-04-23 01:00:00 10.9 21 Noroeste 37 Oeste 0 -- -- 98
2019-04-23 00:00:00 10.8 19 Noroeste 31 Oeste 0 -- -- 99
2019-04-22 23:00:00 11.2 15 Noroeste 26 Noroeste 0 -- -- 98
2019-04-22 22:00:00 11 10 Noroeste 25 Noroeste 0 -- -- 97
2019-04-22 21:00:00 11.8 15 Oeste 23 Oeste 0 -- -- 97
2019-04-22 20:00:00 13.3 12 Noroeste 30 Noroeste 0 -- -- 91
2019-04-22 19:00:00 13.9 14 Noroeste 24 Noroeste 0 -- -- 89
2019-04-22 18:00:00 17.2 14 Noroeste 25 Noroeste 0 -- -- 76
2019-04-22 17:00:00 17.7 16 Noroeste 28 Noroeste 0 -- -- 74
2019-04-22 16:00:00 18.6 15 Noroeste 27 Noroeste 0 -- -- 72
2019-04-22 15:00:00 18.6 16 Noroeste 28 Noroeste 0 -- -- 71
2019-04-22 14:00:00 18.1 15 Noroeste 23 Noroeste 0 -- -- 72
2019-04-22 13:00:00 17.6 14 Noroeste 21 Noroeste 0 -- -- 72
2019-04-22 12:00:00 17.9 10 Noroeste 20 Oeste 0 -- -- 73
2019-04-22 11:00:00 15.9 11 Noroeste 21 Noroeste 0 -- -- 77
2019-04-22 10:00:00 13.3 15 Noroeste 28 Oeste 0 -- -- 87
2019-04-22 09:00:00 10.8 20 Oeste 31 Oeste 0 -- -- 98
2019-04-22 08:00:00 9.7 17 Oeste 26 Oeste 0 -- -- 98
2019-04-22 07:00:00 10 19 Oeste 29 Oeste 0 -- -- 98
2019-04-22 06:00:00 10.1 21 Oeste 33 Oeste 0 -- -- 97
2019-04-22 05:00:00 9.6 20 Oeste 30 Oeste 0 -- -- 98
2019-04-22 04:00:00 9.8 21 Oeste 31 Oeste 0 -- -- 98
2019-04-22 03:00:00 10.6 19 Oeste 30 Oeste 0 -- -- 98
2019-04-22 02:00:00 10.3 19 Oeste 28 Noroeste 0 -- -- 98
2019-04-22 01:00:00 10.6 19 Oeste 29 Oeste 0 -- -- 97
2019-04-22 00:00:00 10.3 18 Oeste 28 Oeste 0 -- -- 98
2019-04-21 23:00:00 10.6 15 Noroeste 26 Oeste 0 -- -- 99
2019-04-21 22:00:00 10.8 13 Noroeste 21 Noroeste 0 -- -- 98
2019-04-21 21:00:00 11.3 11 Noroeste 19 Oeste 0 -- -- 98
2019-04-21 20:00:00 11.5 9 Noroeste 17 Noroeste 0 -- -- 97
2019-04-21 19:00:00 12.3 10 Noroeste 22 Noroeste 0 -- -- 96
2019-04-21 18:00:00 11.9 13 Noroeste 22 Noroeste 0 -- -- 97
2019-04-21 17:00:00 13.3 11 Noroeste 24 Noroeste 0 -- -- 90
2019-04-21 16:00:00 13.3 14 Noroeste 23 Noroeste 0 -- -- 88
2019-04-21 15:00:00 16.6 10 Noroeste 22 Noroeste 0 -- -- 72
2019-04-21 14:00:00 16.6 12 Noroeste 28 Noroeste 0 -- -- 71
2019-04-21 13:00:00 16 14 Noroeste 27 Noroeste 0 -- -- 74
2019-04-21 12:00:00 14.6 14 Noroeste 24 Noroeste 0 -- -- 89
2019-04-21 11:00:00 11.3 12 Noroeste 26 Norte 0 -- -- 99
2019-04-21 10:00:00 11 12 Noroeste 28 Norte 0.2 -- -- 100
2019-04-21 09:00:00 10.2 14 Norte 23 Norte 0.2 -- -- 100
2019-04-21 08:00:00 9.1 5 Oeste 17 Oeste 0 -- -- 100
2019-04-21 07:00:00 9.7 8 Noroeste 22 Norte 0 -- -- 100
2019-04-21 06:00:00 9.8 12 Noroeste 22 Noroeste 0 -- -- 100
2019-04-21 05:00:00 10 11 Noroeste 27 Noroeste 0.2 -- -- 100
2019-04-21 04:00:00 10.3 10 Norte 23 Noroeste 0.2 -- -- 100
2019-04-21 03:00:00 10.3 11 Norte 22 Norte 0 -- -- 100
2019-04-21 02:00:00 10.3 14 Norte 28 Noroeste 0 -- -- 100
2019-04-21 01:00:00 10.4 12 Noroeste 30 Noroeste 1.2 -- -- 100
2019-04-21 00:00:00 10.4 15 Norte 33 Norte 0.6 -- -- 100
2019-04-20 23:00:00 10.4 11 Noroeste 28 Noroeste 0 -- -- 99
2019-04-20 22:00:00 10.4 12 Noroeste 28 Noroeste 0 -- -- 99
2019-04-20 21:00:00 10.1 10 Noroeste 22 Noroeste 0 -- -- 99
2019-04-20 20:00:00 10.3 14 Norte 26 Noroeste 0 -- -- 98
2019-04-20 19:00:00 10.7 15 Norte 31 Norte 0.4 -- -- 97
2019-04-20 18:00:00 11.7 8 Noroeste 22 Noroeste 0 -- -- 93
2019-04-20 17:00:00 11.3 15 Noroeste 28 Noroeste 0.2 -- -- 93
2019-04-20 16:00:00 12.8 11 Noroeste 24 Noroeste 0 -- -- 90
2019-04-20 15:00:00 13.1 10 Noroeste 21 Noroeste 0 -- -- 91
2019-04-20 14:00:00 12.6 11 Noroeste 24 Noroeste 0 -- -- 98
2019-04-20 13:00:00 11.2 11 Noroeste 27 Noroeste 0.2 -- -- 99
2019-04-20 12:00:00 11.2 9 Noroeste 29 Norte 0.6 -- -- 100
2019-04-20 11:00:00 10.1 19 Norte 38 Noroeste 1 -- -- 100
2019-04-20 10:00:00 9.9 19 Noroeste 33 Noroeste 0.4 -- -- 100
2019-04-20 09:00:00 9.5 15 Norte 28 Noroeste 1 -- -- 99
2019-04-20 08:00:00 9.3 11 Noroeste 28 Norte 0.4 -- -- 99
2019-04-20 07:00:00 9.4 13 Noroeste 26 Norte 0.4 -- -- 99
2019-04-20 06:00:00 9.2 13 Noroeste 24 Noroeste 0 -- -- 98
2019-04-20 05:00:00 9.1 10 Noroeste 22 Oeste 0 -- -- 97
2019-04-20 04:00:00 9.1 10 Noroeste 21 Oeste 0 -- -- 98
2019-04-20 03:00:00 9.1 12 Noroeste 22 Oeste 0 -- -- 98
2019-04-20 02:00:00 9.2 12 Noroeste 26 Oeste 0 -- -- 96
2019-04-20 01:00:00 9.1 12 Noroeste 30 Noroeste 0 -- -- 97
2019-04-20 00:00:00 9.3 14 Noroeste 28 Oeste 0 -- -- 95
2019-04-19 23:00:00 9.1 15 Noroeste 27 Noroeste 0 -- -- 95
2019-04-19 22:00:00 9.2 17 Noroeste 30 Noroeste 0 -- -- 95
2019-04-19 21:00:00 9.6 14 Noroeste 24 Noroeste 0 -- -- 95
2019-04-19 20:00:00 9.9 13 Noroeste 29 Noroeste 0 -- -- 92
2019-04-19 19:00:00 11.1 17 Noroeste 27 Noroeste 0 -- -- 87
2019-04-19 18:00:00 12.6 11 Noroeste 22 Noroeste 0 -- -- 82
2019-04-19 17:00:00 16.8 10 Noroeste 19 Noroeste 0 -- -- 64
2019-04-19 16:00:00 14.7 9 Norte 23 Norte 0 -- -- 73
2019-04-19 15:00:00 15 9 Norte 18 Noroeste 0 -- -- 75
2019-04-19 14:00:00 14.2 9 Noroeste 19 Norte 0 -- -- 79
2019-04-19 13:00:00 13.6 8 Noroeste 19 Norte 0 -- -- 80
2019-04-19 12:00:00 13.7 9 Norte 22 Noroeste 0 -- -- 68
2019-04-19 11:00:00 12.2 12 Norte 19 Noroeste 0 -- -- 81
2019-04-19 10:00:00 13.1 10 Norte 28 Noroeste 0 -- -- 76
2019-04-19 09:00:00 9.5 14 Norte 26 Norte 0 -- -- 99
2019-04-19 08:00:00 8.6 11 Noroeste 24 Noroeste 0 -- -- 99
2019-04-19 07:00:00 9 14 Norte 28 Noroeste 0 -- -- 99
2019-04-19 06:00:00 9.2 16 Norte 29 Noroeste 0 -- -- 99
2019-04-19 05:00:00 8.9 10 Noroeste 21 Noroeste 0 -- -- 98
2019-04-19 04:00:00 8.6 16 Norte 30 Noroeste 0 -- -- 98
2019-04-19 03:00:00 9.4 15 Norte 31 Noroeste 0 -- -- 98
2019-04-19 02:00:00 9.2 14 Noroeste 35 Noroeste 0 -- -- 98
2019-04-19 01:00:00 9.7 10 Norte 27 Norte 0 -- -- 98
2019-04-19 00:00:00 9.5 9 Noroeste 22 Noroeste 0 -- -- 97
2019-04-18 23:00:00 9.4 11 Noroeste 22 Noroeste 0 -- -- 97
2019-04-18 22:00:00 9.5 13 Norte 31 Noroeste 0 -- -- 96
2019-04-18 21:00:00 9.7 12 Noroeste 23 Norte 0 -- -- 95
2019-04-18 20:00:00 10 13 Noroeste 26 Norte 0 -- -- 91
2019-04-18 19:00:00 11.6 12 Noroeste 21 Noroeste 0 -- -- 86
2019-04-18 18:00:00 12.3 13 Norte 22 Norte 0 -- -- 83
2019-04-18 17:00:00 13.2 12 Norte 26 Norte 0 -- -- 79
2019-04-18 16:00:00 12 13 Norte 24 Norte 0 -- -- 87
2019-04-18 15:00:00 14.2 11 Norte 23 Noroeste 0 -- -- 76
2019-04-18 14:00:00 12.2 12 Norte 24 Noroeste 0.2 -- -- 93
2019-04-18 13:00:00 12.5 12 Norte 23 Noroeste 0 -- -- 89
2019-04-18 12:00:00 12.2 12 Noroeste 28 Norte 0 -- -- 94
2019-04-18 11:00:00 11.6 12 Noroeste 25 Norte 0.2 -- -- 99
2019-04-18 10:00:00 12.1 8 Noroeste 22 Noroeste 0 -- -- 98
2019-04-18 09:00:00 10.1 13 Noroeste 28 Noroeste 0 -- -- 100
2019-04-18 08:00:00 10 15 Noroeste 26 Noroeste 0 -- -- 100
2019-04-18 07:00:00 9.9 12 Noroeste 24 Noroeste 0 -- -- 100
2019-04-18 06:00:00 9.5 11 Noroeste 23 Oeste 0 -- -- 100
2019-04-18 05:00:00 9.8 11 Noroeste 22 Oeste 0 -- -- 100
2019-04-18 04:00:00 9.9 10 Noroeste 23 Noroeste 0 -- -- 100
2019-04-18 03:00:00 10.2 12 Noroeste 23 Noroeste 0 -- -- 100
2019-04-18 02:00:00 10.1 13 Noroeste 25 Noroeste 0 -- -- 100
2019-04-18 01:00:00 10.4 19 Noroeste 30 Norte 0.2 -- -- 99
2019-04-18 00:00:00 10.3 14 Noroeste 27 Oeste 0 -- -- 99
2019-04-17 23:00:00 10.6 13 Noroeste 26 Noroeste 0 -- -- 99
2019-04-17 22:00:00 10 12 Oeste 20 Oeste 0 -- -- 99
2019-04-17 21:00:00 9.7 12 Oeste 25 Oeste 0 -- -- 99
2019-04-17 20:00:00 10.8 9 Noroeste 19 Noroeste 0.4 -- -- 99
2019-04-17 19:00:00 11.2 10 Noroeste 23 Oeste 0.2 -- -- 99
2019-04-17 18:00:00 11.1 15 Noroeste 29 Noroeste 1 -- -- 98
2019-04-17 17:00:00 12.2 12 Noroeste 22 Noroeste 1.4 -- -- 98
2019-04-17 16:00:00 13 9 Noroeste 17 Norte 1.2 -- -- 97
2019-04-17 15:00:00 13.6 8 Norte 17 Noroeste 0 -- -- 92
2019-04-17 14:00:00 15.1 11 Norte 22 Noroeste 0 -- -- 79
2019-04-17 13:00:00 15.5 10 Norte 21 Norte 0 -- -- 76
2019-04-17 12:00:00 17.7 11 Norte 22 Norte 0 -- -- 66
2019-04-17 11:00:00 17.2 10 Noroeste 22 Noroeste 0 -- -- 65
2019-04-17 10:00:00 16.2 10 Noroeste 22 Noroeste 0 -- -- 62
2019-04-17 09:00:00 13.3 10 Noroeste 17 Oeste 0 -- -- 66
2019-04-17 08:00:00 10.6 11 Oeste 22 Oeste 0 -- -- 77
2019-04-17 07:00:00 9.4 10 Oeste 15 Oeste 0 -- -- 98
2019-04-17 06:00:00 10.1 8 Oeste 17 Oeste 0 -- -- 98
2019-04-17 05:00:00 10.4 9 Oeste 16 Oeste 0 -- -- 98
2019-04-17 04:00:00 10.4 8 Noroeste 17 Noroeste 0 -- -- 98
2019-04-17 03:00:00 10.4 9 Noroeste 16 Noroeste 0 -- -- 98
2019-04-17 02:00:00 11.3 9 Noroeste 15 Noroeste 0 -- -- 97
2019-04-17 01:00:00 11.4 7 Noroeste 16 Oeste 0 -- -- 96
2019-04-17 00:00:00 11.2 10 Oeste 19 Oeste 0 -- -- 96
2019-04-16 23:00:00 11 12 Noroeste 23 Noroeste 0 -- -- 96
2019-04-16 22:00:00 11.8 13 Noroeste 22 Noroeste 0 -- -- 96
2019-04-16 21:00:00 11.9 7 Noroeste 12 Noroeste 0 -- -- 92
2019-04-16 20:00:00 15.5 6 Norte 15 Oeste 0 -- -- 79
2019-04-16 19:00:00 19.2 7 Norte 13 Noroeste 0 -- -- 66
2019-04-16 18:00:00 20.2 6 Norte 13 Norte 0 -- -- 65
2019-04-16 17:00:00 20.9 5 Norte 15 Norte 0 -- -- 61
2019-04-16 16:00:00 18.4 5 Norte 20 Norte 0 -- -- 74
2019-04-16 15:00:00 20.3 10 Norte 18 Noroeste 0 -- -- 66
2019-04-16 14:00:00 19.6 10 Norte 20 Norte 0 -- -- 67
2019-04-16 13:00:00 21.6 10 Este 23 Este 0 -- -- 63
2019-04-16 12:00:00 21.2 6 Este 15 Este 0 -- -- 58
2019-04-16 11:00:00 18.3 10 Este 18 Este 0 -- -- 68
2019-04-16 10:00:00 16 5 Norte 10 Norte 0 -- -- 75
2019-04-16 09:00:00 11 0 Calma 14 Sudeste 0 -- -- 98
2019-04-16 08:00:00 10.7 0 Calma 10 Este 0 -- -- 99
2019-04-16 07:00:00 10.9 3 Sudeste 6 Norte 0 -- -- 98
2019-04-16 06:00:00 10.9 0 Calma 10 Sudeste 0 -- -- 98
2019-04-16 05:00:00 10.5 8 Sudeste 21 Sudeste 0 -- -- 98
2019-04-16 04:00:00 10.3 13 Sudeste 23 Sudeste 0 -- -- 98
2019-04-16 03:00:00 10 18 Sudeste 28 Sudeste 0 -- -- 98
2019-04-16 02:00:00 10.3 22 Sudeste 29 Sudeste 0 -- -- 98
2019-04-16 01:00:00 10.7 10 Sudeste 18 Este 0 -- -- 97
2019-04-16 00:00:00 9.7 9 Sudeste 16 Sudeste 0 -- -- 96
2019-04-15 23:00:00 10.2 12 Sudeste 16 Sudeste 0 -- -- 96
2019-04-15 22:00:00 11 7 Sudeste 17 Sudeste 0 -- -- 92
2019-04-15 21:00:00 12.3 8 Este 18 Este 0 -- -- 89
2019-04-15 20:00:00 13.6 9 Este 16 Este 0 -- -- 84
2019-04-15 19:00:00 17.1 11 Este 20 Este 0 -- -- 69
2019-04-15 18:00:00 18.3 13 Este 25 Este 0 -- -- 63
2019-04-15 17:00:00 19.4 13 Este 25 Este 0 -- -- 61
2019-04-15 16:00:00 19.8 13 Este 26 Este 0 -- -- 62
2019-04-15 15:00:00 19.4 15 Este 28 Sudeste 0 -- -- 62
2019-04-15 14:00:00 19.8 13 Este 23 Sudeste 0 -- -- 61
2019-04-15 13:00:00 17.7 7 Nordeste 19 Este 0 -- -- 66
2019-04-15 12:00:00 17.4 8 Nordeste 23 Este 0 -- -- 61
2019-04-15 11:00:00 16.9 6 Nordeste 16 Nordeste 0 -- -- 63
2019-04-15 10:00:00 15.9 4 Nordeste 15 Oeste 0 -- -- 72
2019-04-15 09:00:00 11.2 9 Oeste 18 Oeste 0 -- -- 94
2019-04-15 08:00:00 10.1 12 Oeste 19 Oeste 0 -- -- 97
2019-04-15 07:00:00 9.8 13 Oeste 21 Oeste 0 -- -- 97
2019-04-15 06:00:00 10 14 Oeste 25 Oeste 0 -- -- 95
2019-04-15 05:00:00 9.6 12 Noroeste 19 Noroeste 0 -- -- 97
2019-04-15 04:00:00 9.4 13 Noroeste 29 Oeste 0 -- -- 91
2019-04-15 03:00:00 10.3 19 Oeste 30 Oeste 0 -- -- 94
2019-04-15 02:00:00 10.1 16 Oeste 24 Oeste 0 -- -- 74
2019-04-15 01:00:00 11.2 12 Oeste 21 Oeste 0 -- -- 54
2019-04-15 00:00:00 10 16 Oeste 24 Oeste 0 -- -- 79
2019-04-14 23:00:00 11 14 Oeste 21 Oeste 0 -- -- 97
2019-04-14 22:00:00 11.4 8 Noroeste 15 Oeste 0 -- -- 96
2019-04-14 21:00:00 11.7 9 Noroeste 17 Norte 0 -- -- 95
2019-04-14 20:00:00 12.8 10 Noroeste 17 Noroeste 0 -- -- 92
2019-04-14 19:00:00 17.4 8 Noroeste 14 Noroeste 0 -- -- 73
2019-04-14 18:00:00 17.5 7 Noroeste 19 Norte 0 -- -- 73
2019-04-14 17:00:00 17.2 10 Noroeste 16 Noroeste 0 -- -- 77
2019-04-14 16:00:00 21.5 6 Norte 14 Norte 0 -- -- 62
2019-04-14 15:00:00 22.1 7 Noroeste 13 Noroeste 0 -- -- 56
2019-04-14 14:00:00 21.7 3 Norte 14 Noroeste 0 -- -- 58
2019-04-14 13:00:00 21.3 5 Norte 11 Norte 0 -- -- 56
2019-04-14 12:00:00 21.6 5 Norte 14 Este 0 -- -- 57
2019-04-14 11:00:00 22.5 7 Este 14 Este 0 -- -- 33
2019-04-14 10:00:00 21.2 5 Sudeste 24 Sudeste 0 -- -- 27
2019-04-14 09:00:00 15.4 16 Sudeste 28 Sudeste 0 -- -- 38
2019-04-14 08:00:00 10.3 15 Sudeste 25 Sudeste 0 -- -- 48
2019-04-14 07:00:00 9.3 18 Sudeste 25 Sudeste 0 -- -- 52
2019-04-14 06:00:00 9.5 14 Sudeste 17 Sudeste 0 -- -- 45
2019-04-14 05:00:00 10.2 10 Sudeste 21 Sudeste 0 -- -- 41
2019-04-14 04:00:00 9 12 Sudeste 18 Sudeste 0 -- -- 55
2019-04-14 03:00:00 9.2 10 Sudeste 14 Sudeste 0 -- -- 55
2019-04-14 02:00:00 10.2 9 Sudeste 17 Sudeste 0 -- -- 51
2019-04-14 01:00:00 10 8 Sudeste 12 Sudeste 0 -- -- 44
2019-04-14 00:00:00 10 7 Sudeste 14 Este 0 -- -- 46
2019-04-13 23:00:00 11.3 8 Este 11 Este 0 -- -- 49
2019-04-13 22:00:00 11.6 4 Sudeste 9 Este 0 -- -- 52
2019-04-13 21:00:00 11.1 4 Sudeste 12 Este 0 -- -- 48
2019-04-13 20:00:00 13.2 4 Noroeste 7 Noroeste 0 -- -- 83
2019-04-13 19:00:00 17.9 3 Oeste 10 Noroeste 0 -- -- 66
2019-04-13 18:00:00 19.7 5 Sudeste 13 Sudeste 0 -- -- 51
2019-04-13 17:00:00 20.4 8 Sudeste 15 Este 0 -- -- 53
2019-04-13 16:00:00 20.9 6 Sudeste 15 Este 0 -- -- 48
2019-04-13 15:00:00 18.8 9 Sudeste 18 Este 0 -- -- 63
2019-04-13 14:00:00 16.5 5 Nordeste 19 Norte 0 -- -- 68
2019-04-13 13:00:00 17.6 7 Nordeste 17 Norte 0 -- -- 67
2019-04-13 12:00:00 16.9 5 Nordeste 18 Noroeste 0 -- -- 65
2019-04-13 11:00:00 17.3 4 Este 15 Este 0 -- -- 64
2019-04-13 10:00:00 12.3 4 Norte 8 Este 0 -- -- 83
2019-04-13 09:00:00 10.8 4 Nordeste 13 Nordeste 0 -- -- 90
2019-04-13 08:00:00 9.4 4 Este 12 Norte 0 -- -- 95
2019-04-13 07:00:00 9.3 4 Este 19 Norte 0 -- -- 95
2019-04-13 06:00:00 9.6 3 Nordeste 12 Norte 0 -- -- 93
2019-04-13 05:00:00 9.3 3 Nordeste 21 Norte 0 -- -- 96
2019-04-13 04:00:00 9.6 4 Nordeste 15 Norte 0 -- -- 93
2019-04-13 03:00:00 9.5 0 Calma 17 Norte 0 -- -- 95
2019-04-13 02:00:00 9.7 3 Norte 15 Norte 0 -- -- 96
2019-04-13 01:00:00 9.3 4 Oeste 14 Nordeste 0 -- -- 97
2019-04-13 00:00:00 9.7 5 Noroeste 13 Noroeste 0 -- -- 95
2019-04-12 23:00:00 9.2 6 Oeste 13 Oeste 0 -- -- 94
2019-04-12 22:00:00 9.8 7 Norte 15 Norte 0 -- -- 94
2019-04-12 21:00:00 9.8 8 Norte 17 Norte 0 -- -- 93
2019-04-12 20:00:00 10.8 8 Noroeste 16 Norte 0 -- -- 89
2019-04-12 19:00:00 14.6 6 Norte 16 Norte 0 -- -- 65
2019-04-12 18:00:00 14.1 7 Noroeste 18 Norte 0 -- -- 69
2019-04-12 17:00:00 13.6 10 Norte 23 Norte 0 -- -- 73
2019-04-12 16:00:00 15.4 10 Norte 24 Norte 0 -- -- 64
2019-04-12 15:00:00 14.9 10 Norte 21 Noroeste 0 -- -- 71
2019-04-12 14:00:00 13.3 11 Norte 20 Norte 0 -- -- 79
2019-04-12 13:00:00 12.7 8 Norte 19 Noroeste 0 -- -- 86
2019-04-12 12:00:00 10.4 10 Norte 21 Norte 0 -- -- 97
2019-04-12 11:00:00 10.2 7 Norte 22 Norte 0 -- -- 98
2019-04-12 10:00:00 10 9 Norte 21 Norte 0 -- -- 99
2019-04-12 09:00:00 9.4 8 Norte 21 Norte 0.2 -- -- 99
2019-04-12 08:00:00 8.9 7 Norte 15 Norte 0 -- -- 99
2019-04-12 07:00:00 8.8 9 Norte 21 Norte 0 -- -- 98
2019-04-12 06:00:00 9.2 11 Norte 26 Noroeste 0.2 -- -- 98
2019-04-12 05:00:00 8.8 5 Oeste 19 Norte 0 -- -- 97
2019-04-12 04:00:00 8.6 5 Norte 16 Nordeste 0.2 -- -- 96
2019-04-12 03:00:00 8.8 6 Norte 22 Norte 0 -- -- 98
2019-04-12 02:00:00 8.9 11 Noroeste 18 Noroeste 0 -- -- 98
2019-04-12 01:00:00 9.2 8 Norte 17 Noroeste 0 -- -- 98
2019-04-12 00:00:00 9.3 13 Norte 28 Norte 0 -- -- 98
2019-04-11 23:00:00 9.3 12 Norte 29 Norte 0.2 -- -- 98
2019-04-11 22:00:00 9.7 8 Noroeste 27 Norte 0 -- -- 96
2019-04-11 21:00:00 9.8 7 Noroeste 15 Noroeste 0 -- -- 93
2019-04-11 20:00:00 10.3 8 Noroeste 19 Norte 0 -- -- 90
2019-04-11 19:00:00 11.5 9 Noroeste 18 Norte 0 -- -- 85
2019-04-11 18:00:00 12.6 9 Norte 21 Norte 0 -- -- 77
2019-04-11 17:00:00 12.3 10 Norte 20 Noroeste 0 -- -- 87
2019-04-11 16:00:00 13.6 8 Norte 19 Norte 0 -- -- 74
2019-04-11 15:00:00 14.3 9 Norte 19 Norte 0 -- -- 77
2019-04-11 14:00:00 13.2 8 Norte 18 Norte 0 -- -- 77
2019-04-11 13:00:00 12.3 7 Norte 18 Norte 0 -- -- 81
2019-04-11 12:00:00 11.1 9 Norte 17 Norte 0 -- -- 85
2019-04-11 11:00:00 11 7 Norte 17 Norte 0 -- -- 82
2019-04-11 10:00:00 10 10 Norte 18 Norte 0 -- -- 88
2019-04-11 09:00:00 9.3 4 Nordeste 15 Noroeste 0 -- -- 90
2019-04-11 08:00:00 8.6 4 Nordeste 18 Norte 0 -- -- 94
2019-04-11 07:00:00 8.8 4 Norte 13 Norte 0 -- -- 95
2019-04-11 06:00:00 9 5 Norte 13 Nordeste 0 -- -- 96
2019-04-11 05:00:00 8.9 4 Noroeste 11 Norte 0 -- -- 95
2019-04-11 04:00:00 9 4 Noroeste 11 Oeste 0 -- -- 94
2019-04-11 03:00:00 8.8 4 Noroeste 13 Norte 0 -- -- 95
2019-04-11 02:00:00 8.7 5 Norte 12 Norte 0 -- -- 94
2019-04-11 01:00:00 8.9 3 Oeste 12 Nordeste 0 -- -- 95
2019-04-11 00:00:00 8.8 6 Norte 18 Norte 0 -- -- 96
2019-04-10 23:00:00 9.8 7 Norte 23 Norte 0 -- -- 98
2019-04-10 22:00:00 9.7 9 Noroeste 20 Norte 0 -- -- 97
2019-04-10 21:00:00 9.6 7 Norte 22 Noroeste 0 -- -- 95
2019-04-10 20:00:00 10.2 9 Norte 21 Noroeste 0 -- -- 94
2019-04-10 19:00:00 10.8 11 Norte 24 Norte 0 -- -- 90
2019-04-10 18:00:00 12.1 7 Noroeste 20 Noroeste 0 -- -- 87
2019-04-10 17:00:00 12.9 11 Norte 21 Noroeste 0 -- -- 81
2019-04-10 16:00:00 13.5 9 Norte 24 Norte 0 -- -- 77
2019-04-10 15:00:00 12.9 10 Norte 21 Norte 0 -- -- 78
2019-04-10 14:00:00 13.6 9 Norte 23 Norte 0 -- -- 80
2019-04-10 13:00:00 13.5 10 Norte 19 Norte 0 -- -- 77
2019-04-10 12:00:00 12.2 5 Norte 23 Norte 0 -- -- 82
2019-04-10 11:00:00 11.9 8 Norte 15 Norte 0 -- -- 80
2019-04-10 10:00:00 10.5 9 Norte 22 Noroeste 0 -- -- 87
2019-04-10 09:00:00 9.1 10 Norte 21 Norte 0 -- -- 97
2019-04-10 08:00:00 8.8 8 Norte 19 Norte 0.2 -- -- 98
2019-04-10 07:00:00 8.6 4 Norte 13 Noroeste 0 -- -- 94
2019-04-10 06:00:00 8.6 2 Noroeste 18 Noroeste 0 -- -- 95
2019-04-10 05:00:00 8.4 4 Oeste 13 Norte 0 -- -- 96
2019-04-10 04:00:00 8.5 6 Norte 15 Norte 0 -- -- 98
2019-04-10 03:00:00 8.6 2 Noroeste 16 Norte 0 -- -- 98
2019-04-10 02:00:00 9 6 Norte 16 Norte 0 -- -- 99
2019-04-10 01:00:00 8.9 5 Norte 13 Noroeste 0 -- -- 99
2019-04-10 00:00:00 9.1 4 Nordeste 12 Nordeste 0 -- -- 99
2019-04-09 23:00:00 9.1 0 Calma 10 Nordeste 0 -- -- 99
2019-04-09 22:00:00 9.3 6 Noroeste 12 Noroeste 0 -- -- 99
2019-04-09 21:00:00 9.8 7 Norte 10 Noroeste 0 -- -- 98
2019-04-09 20:00:00 10.6 6 Norte 13 Noroeste 0 -- -- 98
2019-04-09 19:00:00 11.4 6 Noroeste 17 Norte 0 -- -- 97
2019-04-09 18:00:00 11.9 8 Norte 15 Norte 0.2 -- -- 98
2019-04-09 17:00:00 12.2 5 Nordeste 18 Norte 0.8 -- -- 96
2019-04-09 16:00:00 13.2 3 Norte 17 Nordeste 0.2 -- -- 95
2019-04-09 15:00:00 12.1 6 Nordeste 18 Norte 0.6 -- -- 96
2019-04-09 14:00:00 12.5 12 Norte 24 Norte 1.8 -- -- 96
2019-04-09 13:00:00 14.1 4 Norte 13 Nordeste 0.2 -- -- 88
2019-04-09 12:00:00 14.7 6 Norte 15 Norte 0 -- -- 79
2019-04-09 11:00:00 14.1 4 Sur 14 Sudeste 0 -- -- 74
2019-04-09 10:00:00 12.3 4 Sudeste 13 Este 0 -- -- 89
2019-04-09 09:00:00 10.7 4 Sur 11 Sudeste 0 -- -- 94
2019-04-09 08:00:00 9.7 8 Sudeste 12 Sudeste 0 -- -- 96
2019-04-09 07:00:00 9.6 4 Sur 13 Sudeste 0 -- -- 95
2019-04-09 06:00:00 9.4 5 Este 10 Sur 0 -- -- 95
2019-04-09 05:00:00 9.5 3 Sudoeste 10 Sudoeste 0 -- -- 94
2019-04-09 04:00:00 8.7 6 Sur 16 Sudeste 0 -- -- 95
2019-04-09 03:00:00 8.9 3 Sur 9 Sudoeste 0 -- -- 92
2019-04-09 02:00:00 8.5 5 Sudoeste 10 Noroeste 0 -- -- 93
2019-04-09 01:00:00 8.5 7 Noroeste 13 Oeste 0 -- -- 96
2019-04-09 00:00:00 9.3 6 Oeste 12 Oeste 0 -- -- 95
2019-04-08 23:00:00 9.8 7 Oeste 13 Noroeste 0 -- -- 96
2019-04-08 22:00:00 10.1 8 Noroeste 13 Norte 0 -- -- 96
2019-04-08 21:00:00 10.5 8 Norte 13 Noroeste 0 -- -- 96
2019-04-08 20:00:00 11.1 5 Norte 13 Norte 0 -- -- 93
2019-04-08 19:00:00 12.2 6 Noroeste 13 Norte 0 -- -- 90
2019-04-08 18:00:00 12.5 8 Noroeste 20 Norte 0 -- -- 89
2019-04-08 17:00:00 14.4 12 Norte 22 Noroeste 0 -- -- 76
2019-04-08 16:00:00 14.9 9 Noroeste 20 Norte 0 -- -- 76
2019-04-08 15:00:00 14.1 10 Noroeste 21 Noroeste 0 -- -- 77
2019-04-08 14:00:00 13.2 9 Noroeste 22 Noroeste 0 -- -- 84
2019-04-08 13:00:00 14 10 Norte 17 Norte 0 -- -- 84
2019-04-08 12:00:00 13.4 7 Noroeste 17 Noroeste 0 -- -- 87
2019-04-08 11:00:00 11.1 9 Norte 15 Norte 0.2 -- -- 98
2019-04-08 10:00:00 10.3 6 Noroeste 11 Noroeste 0.2 -- -- 98
2019-04-08 09:00:00 10 3 Sudoeste 10 Oeste 0.2 -- -- 98
2019-04-08 08:00:00 9.7 6 Oeste 10 Oeste 0 -- -- 99
2019-04-08 07:00:00 9.6 6 Oeste 15 Oeste 0.2 -- -- 99
2019-04-08 06:00:00 9.6 5 Oeste 13 Oeste 0 -- -- 98
2019-04-08 05:00:00 10 5 Noroeste 15 Noroeste 0 -- -- 98
2019-04-08 04:00:00 10.2 9 Noroeste 14 Noroeste 0 -- -- 98
2019-04-08 03:00:00 10.1 7 Noroeste 12 Oeste 0 -- -- 96
2019-04-08 02:00:00 10 7 Oeste 12 Oeste 0 -- -- 94
2019-04-08 01:00:00 10.1 6 Oeste 14 Oeste 0 -- -- 91
2019-04-08 00:00:00 9 10 Oeste 15 Oeste 0 -- -- 93
2019-04-07 23:00:00 9.7 8 Oeste 13 Oeste 0 -- -- 95
2019-04-07 22:00:00 9.8 8 Oeste 13 Oeste 0 -- -- 96
2019-04-07 21:00:00 10.5 8 Noroeste 14 Noroeste 0 -- -- 95
2019-04-07 20:00:00 11.6 8 Noroeste 17 Norte 0 -- -- 91
2019-04-07 19:00:00 13.2 8 Noroeste 19 Norte 0 -- -- 85
2019-04-07 18:00:00 16 11 Noroeste 22 Noroeste 0 -- -- 72
2019-04-07 17:00:00 16.3 12 Noroeste 25 Norte 0 -- -- 73
2019-04-07 16:00:00 16.2 13 Norte 24 Norte 0 -- -- 74
2019-04-07 15:00:00 16 15 Norte 25 Noroeste 0 -- -- 75
2019-04-07 14:00:00 16.7 13 Norte 24 Norte 0 -- -- 72
2019-04-07 13:00:00 16.5 12 Norte 20 Noroeste 0 -- -- 68
2019-04-07 12:00:00 16.5 8 Norte 18 Norte 0 -- -- 66
2019-04-07 11:00:00 15.3 7 Noroeste 14 Noroeste 0 -- -- 69
2019-04-07 10:00:00 14.3 6 Norte 10 Norte 0 -- -- 67
2019-04-07 09:00:00 11.2 3 Noroeste 6 Noroeste 0 -- -- 72
2019-04-07 08:00:00 8.9 2 Sudoeste 6 Sudoeste 0 -- -- 79
2019-04-07 07:00:00 8.8 3 Sudeste 6 Sudeste 0 -- -- 75
2019-04-07 06:00:00 8.5 0 Calma 4 Sudoeste 0 -- -- 83
2019-04-07 05:00:00 8.2 0 Calma 10 Sur 0 -- -- 90
2019-04-07 04:00:00 8.2 4 Sur 6 Sur 0 -- -- 92
2019-04-07 03:00:00 8.7 3 Sudoeste 10 Sur 0 -- -- 94
2019-04-07 02:00:00 8.8 0 Calma 10 Sudoeste 0 -- -- 97
2019-04-07 01:00:00 8.7 3 Oeste 11 Noroeste 0 -- -- 98
2019-04-07 00:00:00 8.3 3 Sudoeste 9 Sudoeste 0 -- -- 98
2019-04-06 23:00:00 9.2 3 Noroeste 15 Noroeste 0 -- -- 99
2019-04-06 22:00:00 9.3 9 Norte 21 Noroeste 0 -- -- 98
2019-04-06 21:00:00 9.6 13 Norte 27 Norte 0.2 -- -- 97
2019-04-06 20:00:00 9.7 13 Noroeste 28 Norte 0 -- -- 94
2019-04-06 19:00:00 11.1 14 Noroeste 26 Noroeste 0 -- -- 87
2019-04-06 18:00:00 12.4 15 Noroeste 27 Noroeste 0 -- -- 76
2019-04-06 17:00:00 14.8 13 Noroeste 28 Noroeste 0 -- -- 63
2019-04-06 16:00:00 13.6 15 Noroeste 30 Noroeste 0 -- -- 78
2019-04-06 15:00:00 14.3 16 Noroeste 31 Noroeste 0 -- -- 75
2019-04-06 14:00:00 12.4 17 Noroeste 33 Noroeste 0 -- -- 77
2019-04-06 13:00:00 11.8 21 Norte 37 Noroeste 0 -- -- 85
2019-04-06 12:00:00 10.4 16 Noroeste 42 Noroeste 0.2 -- -- 97
2019-04-06 11:00:00 10 17 Noroeste 31 Noroeste 0 -- -- 93
2019-04-06 10:00:00 9.7 15 Noroeste 30 Oeste 0 -- -- 99
2019-04-06 09:00:00 8.6 17 Noroeste 38 Noroeste 0 -- -- 100
2019-04-06 08:00:00 8.6 20 Noroeste 34 Norte 0.2 -- -- 100
2019-04-06 07:00:00 8 13 Noroeste 27 Oeste 0 -- -- 100
2019-04-06 06:00:00 7.5 16 Oeste 27 Oeste 0 -- -- 100
2019-04-06 05:00:00 7.6 16 Noroeste 32 Noroeste 0 -- -- 100
2019-04-06 04:00:00 8.6 20 Noroeste 40 Noroeste 0 -- -- 100
2019-04-06 03:00:00 8.6 20 Noroeste 44 Norte 0.4 -- -- 100
2019-04-06 02:00:00 8.9 18 Noroeste 37 Noroeste 0.6 -- -- 100
2019-04-06 01:00:00 9.1 17 Noroeste 42 Noroeste 0.4 -- -- 99
2019-04-06 00:00:00 9.1 19 Noroeste 42 Norte 1.6 -- -- 99
2019-04-05 23:00:00 8.7 18 Noroeste 41 Norte 0 -- -- 98
2019-04-05 22:00:00 9.3 17 Noroeste 41 Noroeste 0 -- -- 99
2019-04-05 21:00:00 9.5 21 Noroeste 42 Noroeste 0 -- -- 99
2019-04-05 20:00:00 9.6 18 Noroeste 47 Norte 0 -- -- 98
2019-04-05 19:00:00 10.2 22 Noroeste 44 Noroeste 0 -- -- 98
2019-04-05 18:00:00 10.3 18 Noroeste 41 Noroeste 0 -- -- 98
2019-04-05 17:00:00 11.6 15 Noroeste 30 Noroeste 0.6 -- -- 93
2019-04-05 16:00:00 15.5 17 Noroeste 29 Noroeste 0 -- -- 66
2019-04-05 15:00:00 14.5 17 Noroeste 31 Noroeste 0 -- -- 73
2019-04-05 14:00:00 14.7 18 Noroeste 36 Noroeste 0 -- -- 76
2019-04-05 13:00:00 12.7 18 Noroeste 34 Norte 0 -- -- 85
2019-04-05 12:00:00 12.3 13 Noroeste 27 Noroeste 0 -- -- 90
2019-04-05 11:00:00 11 16 Oeste 30 Oeste 0.4 -- -- 100
2019-04-05 10:00:00 9.4 14 Noroeste 28 Oeste 0 -- -- 100
2019-04-05 09:00:00 8.9 15 Oeste 31 Noroeste 0 -- -- 100
2019-04-05 08:00:00 8.9 14 Noroeste 30 Oeste 0 -- -- 100
2019-04-05 07:00:00 8.6 15 Oeste 30 Oeste 0 -- -- 100
2019-04-05 06:00:00 8.3 17 Oeste 29 Oeste 0.2 -- -- 100
2019-04-05 05:00:00 7.7 17 Oeste 28 Oeste 0 -- -- 100
2019-04-05 04:00:00 8.5 17 Noroeste 30 Noroeste 0.4 -- -- 100
2019-04-05 03:00:00 8.6 13 Noroeste 29 Oeste 0 -- -- 100
2019-04-05 02:00:00 9.2 14 Noroeste 27 Oeste 0.6 -- -- 100
2019-04-05 01:00:00 8.8 13 Oeste 22 Oeste 0.2 -- -- 100
2019-04-05 00:00:00 9 14 Oeste 30 Noroeste 0.6 -- -- 100
2019-04-04 23:00:00 9.4 13 Noroeste 25 Noroeste 0.4 -- -- 100
2019-04-04 22:00:00 9.2 12 Noroeste 27 Noroeste 0 -- -- 99
2019-04-04 21:00:00 9.4 14 Noroeste 27 Noroeste 0 -- -- 99
2019-04-04 20:00:00 9.8 14 Noroeste 27 Noroeste 0 -- -- 99
2019-04-04 19:00:00 10.2 14 Noroeste 31 Noroeste 1.2 -- -- 98
2019-04-04 18:00:00 10.9 13 Noroeste 25 Norte 0 -- -- 95
2019-04-04 17:00:00 10.9 15 Noroeste 29 Norte 0 -- -- 96
2019-04-04 16:00:00 11 16 Noroeste 28 Noroeste 0.2 -- -- 95
2019-04-04 15:00:00 12.2 11 Noroeste 26 Noroeste 0 -- -- 89
2019-04-04 14:00:00 13.4 12 Noroeste 24 Noroeste 0 -- -- 86
2019-04-04 13:00:00 11.7 13 Noroeste 27 Oeste 0 -- -- 93
2019-04-04 12:00:00 10.4 10 Oeste 22 Oeste 0.6 -- -- 97
2019-04-04 11:00:00 11.9 10 Noroeste 15 Noroeste 0 -- -- 95
2019-04-04 10:00:00 10 9 Noroeste 14 Noroeste 0 -- -- 97
2019-04-04 09:00:00 8.7 3 Oeste 6 Noroeste 0 -- -- 99
2019-04-04 08:00:00 8.3 4 Noroeste 10 Noroeste 0.2 -- -- 99
2019-04-04 07:00:00 8.2 6 Sudeste 10 Sudeste 0.8 -- -- 99
2019-04-04 06:00:00 8.4 3 Sudeste 8 Noroeste 0 -- -- 99
2019-04-04 05:00:00 8.5 5 Noroeste 11 Oeste 0.2 -- -- 100
2019-04-04 04:00:00 8.2 7 Noroeste 12 Oeste 0 -- -- 99
2019-04-04 03:00:00 8.3 5 Oeste 13 Oeste 0.8 -- -- 99
2019-04-04 02:00:00 8.9 8 Oeste 19 Oeste 3 -- -- 98
2019-04-04 01:00:00 9.6 10 Oeste 27 Noroeste 3.2 -- -- 98
2019-04-04 00:00:00 9.2 10 Oeste 20 Oeste 2.2 -- -- 97
2019-04-03 23:00:00 9.2 11 Oeste 22 Oeste 0 -- -- 91
2019-04-03 22:00:00 9.5 14 Oeste 22 Oeste 0 -- -- 92
2019-04-03 21:00:00 9.4 15 Oeste 23 Oeste 0 -- -- 89
2019-04-03 20:00:00 10.8 12 Noroeste 24 Oeste 0 -- -- 81
2019-04-03 19:00:00 11.4 6 Noroeste 12 Noroeste 0 -- -- 91
2019-04-03 18:00:00 13.1 4 Noroeste 15 Norte 0 -- -- 86
2019-04-03 17:00:00 14.6 7 Norte 20 Norte 0 -- -- 79
2019-04-03 16:00:00 13.9 5 Norte 13 Norte 0 -- -- 89
2019-04-03 15:00:00 10.6 4 Norte 12 Norte 0 -- -- 97
2019-04-03 14:00:00 12.1 9 Norte 19 Norte 0 -- -- 96
2019-04-03 13:00:00 11.6 9 Norte 27 Norte 2.8 -- -- 100
2019-04-03 12:00:00 11.4 10 Norte 19 Norte 0 -- -- 95
2019-04-03 11:00:00 13 3 Norte 6 Noroeste 0 -- -- 96
2019-04-03 10:00:00 11.8 3 Noroeste 6 Norte 0 -- -- 100
2019-04-03 09:00:00 10.3 3 Norte 5 Noroeste 0 -- -- 99
2019-04-03 08:00:00 9.5 4 Noroeste 8 Noroeste 0 -- -- 100
2019-04-03 07:00:00 9.2 0 Calma 12 Norte 0 -- -- 100
2019-04-03 06:00:00 9.1 3 Norte 8 Sudoeste 0 -- -- 100
2019-04-03 05:00:00 9.7 7 Oeste 11 Noroeste 0 -- -- 99
2019-04-03 04:00:00 10.1 4 Oeste 10 Noroeste 0 -- -- 100
2019-04-03 03:00:00 10 7 Noroeste 13 Noroeste 0 -- -- 100
2019-04-03 02:00:00 10.4 4 Oeste 10 Oeste 0 -- -- 99
2019-04-03 01:00:00 11 0 Calma 4 Noroeste 0 -- -- 99
2019-04-03 00:00:00 10.9 2 Oeste 5 Noroeste 0 -- -- 99
2019-04-02 23:00:00 10.9 3 Norte 10 Noroeste 0 -- -- 99
2019-04-02 22:00:00 11.2 4 Noroeste 10 Noroeste 0 -- -- 99
2019-04-02 21:00:00 11.2 4 Noroeste 14 Oeste 0 -- -- 99
2019-04-02 20:00:00 11.3 8 Noroeste 16 Noroeste 0.2 -- -- 98
2019-04-02 19:00:00 11.5 9 Noroeste 15 Noroeste 0.6 -- -- 98
2019-04-02 18:00:00 12 8 Noroeste 14 Norte 0.2 -- -- 96
2019-04-02 17:00:00 13 6 Noroeste 14 Norte 0 -- -- 93
2019-04-02 16:00:00 13.1 8 Noroeste 14 Norte 0 -- -- 92
2019-04-02 15:00:00 13.9 7 Norte 14 Noroeste 0 -- -- 87
2019-04-02 14:00:00 13.3 7 Norte 17 Norte 0 -- -- 87
2019-04-02 13:00:00 15.6 8 Norte 14 Noroeste 0 -- -- 76
2019-04-02 12:00:00 16.6 4 Nordeste 23 Este 0 -- -- 67
2019-04-02 11:00:00 17 12 Este 24 Sudeste 0 -- -- 67
2019-04-02 10:00:00 14.8 14 Este 22 Este 0 -- -- 73
2019-04-02 09:00:00 10.1 12 Sudeste 18 Sudeste 0 -- -- 96
2019-04-02 08:00:00 8.6 7 Sudeste 16 Sudeste 0 -- -- 86
2019-04-02 07:00:00 8.3 12 Sudeste 22 Sudeste 0 -- -- 98
2019-04-02 06:00:00 8.8 18 Sudeste 28 Sudeste 0 -- -- 98
2019-04-02 05:00:00 9 19 Sudeste 28 Sudeste 0 -- -- 98
2019-04-02 04:00:00 8.6 14 Sudeste 21 Sudeste 0 -- -- 97
2019-04-02 03:00:00 8.2 11 Sudeste 14 Sudeste 0 -- -- 95
2019-04-02 02:00:00 9.4 0 Calma 6 Este 0 -- -- 94
2019-04-02 01:00:00 9.1 5 Sur 10 Sudeste 0 -- -- 97
2019-04-02 00:00:00 8.9 7 Sudeste 10 Sudeste 0 -- -- 98
2019-04-01 23:00:00 8.7 4 Sudeste 8 Este 0 -- -- 96
2019-04-01 22:00:00 9.5 0 Calma 9 Oeste 0 -- -- 90
2019-04-01 21:00:00 10.2 6 Oeste 9 Oeste 0 -- -- 96
2019-04-01 20:00:00 11.3 3 Sudeste 5 Sudeste 0 -- -- 95
2019-04-01 19:00:00 11.3 0 Calma 12 Sudeste 0 -- -- 97
2019-04-01 18:00:00 11 6 Sudeste 17 Este 0 -- -- 97
2019-04-01 17:00:00 10.9 8 Este 11 Sudeste 0.4 -- -- 96
2019-04-01 16:00:00 11.1 8 Sudeste 13 Sudeste 0 -- -- 95
2019-04-01 15:00:00 11.1 6 Este 17 Este 0.2 -- -- 95
2019-04-01 14:00:00 11.7 3 Este 10 Norte 0 -- -- 92
2019-04-01 13:00:00 12.1 5 Norte 14 Norte 0 -- -- 90
2019-04-01 12:00:00 13.8 4 Noroeste 12 Norte 0 -- -- 85
2019-04-01 11:00:00 16.3 6 Este 13 Este 0 -- -- 68
2019-04-01 10:00:00 14.5 0 Calma 9 Noroeste 0 -- -- 67
2019-04-01 09:00:00 10 5 Noroeste 10 Oeste 0 -- -- 77
2019-04-01 08:00:00 8.6 6 Noroeste 10 Oeste 0 -- -- 85
2019-04-01 07:00:00 8.5 8 Oeste 13 Oeste 0 -- -- 93
2019-04-01 06:00:00 8.4 9 Oeste 13 Oeste 0 -- -- 93
2019-04-01 05:00:00 8.2 8 Oeste 13 Oeste 0 -- -- 97
2019-04-01 04:00:00 9 10 Oeste 16 Oeste 0 -- -- 98
2019-04-01 03:00:00 10.1 9 Noroeste 18 Noroeste 0.2 -- -- 98
2019-04-01 02:00:00 9.7 8 Noroeste 15 Noroeste 0.2 -- -- 96
2019-04-01 01:00:00 9.3 12 Oeste 16 Oeste 0 -- -- 94
2019-04-01 00:00:00 9.4 9 Oeste 17 Oeste 0 -- -- 93
2019-03-31 23:00:00 9 11 Oeste 15 Sudoeste 0 -- -- 89
2019-03-31 22:00:00 9.1 6 Oeste 11 Noroeste 0 -- -- 95
2019-03-31 21:00:00 10 6 Noroeste 9 Noroeste 0 -- -- 94
2019-03-31 20:00:00 11.3 6 Noroeste 12 Norte 0 -- -- 91
2019-03-31 19:00:00 12.2 4 Noroeste 9 Norte 0 -- -- 88
2019-03-31 18:00:00 12.6 6 Norte 12 Norte 0 -- -- 83
2019-03-31 17:00:00 14 5 Norte 13 Norte 0 -- -- 77
2019-03-31 16:00:00 13.3 9 Norte 15 Noroeste 0 -- -- 82
2019-03-31 15:00:00 14.8 7 Norte 18 Norte 0 -- -- 72
2019-03-31 14:00:00 15.9 6 Norte 21 Noroeste 0 -- -- 66
2019-03-31 13:00:00 17.3 6 Noroeste 20 Oeste 0 -- -- 61
2019-03-31 12:00:00 16.7 10 Noroeste 19 Oeste 0 -- -- 61
2019-03-31 11:00:00 16.2 7 Noroeste 16 Norte 0 -- -- 62
2019-03-31 10:00:00 14.3 6 Noroeste 17 Oeste 0 -- -- 67
2019-03-31 09:00:00 10.3 12 Oeste 27 Oeste 0 -- -- 78
2019-03-31 08:00:00 8.4 12 Oeste 22 Oeste 0 -- -- 86
2019-03-31 07:00:00 7.8 6 Oeste 19 Sudoeste 0 -- -- 75
2019-03-31 06:00:00 8.2 14 Oeste 25 Oeste 0 -- -- 81
2019-03-31 05:00:00 8 14 Oeste 26 Oeste 0 -- -- 77
2019-03-31 04:00:00 7.7 10 Noroeste 22 Oeste 0 -- -- 93
2019-03-31 00:00:00 8.3 9 Oeste 13 Oeste 0 -- -- 84
2019-03-30 23:00:00 8.2 6 Noroeste 12 Noroeste 0 -- -- 98
2019-03-30 22:00:00 8.5 8 Oeste 10 Oeste 0 -- -- 97
2019-03-30 21:00:00 9.5 5 Noroeste 16 Noroeste 0 -- -- 97
2019-03-30 20:00:00 10.1 6 Noroeste 13 Noroeste 0 -- -- 97
2019-03-30 19:00:00 10.6 5 Noroeste 12 Noroeste 0 -- -- 94
2019-03-30 18:00:00 11.5 5 Noroeste 13 Noroeste 0 -- -- 88
2019-03-30 17:00:00 12.9 6 Noroeste 18 Norte 0 -- -- 83
2019-03-30 16:00:00 15.3 9 Norte 17 Norte 0 -- -- 69
2019-03-30 15:00:00 14.1 8 Norte 23 Norte 0 -- -- 70
2019-03-30 14:00:00 15.5 9 Norte 20 Noroeste 0 -- -- 68
2019-03-30 13:00:00 14.6 10 Noroeste 19 Noroeste 0 -- -- 72
2019-03-30 12:00:00 15.6 9 Norte 18 Norte 0 -- -- 70
2019-03-30 11:00:00 12.7 9 Noroeste 19 Noroeste 0 -- -- 76
2019-03-30 10:00:00 12.9 8 Oeste 17 Oeste 0 -- -- 78
2019-03-30 09:00:00 9 6 Oeste 19 Noroeste 1.6 -- -- 97
2019-03-30 08:00:00 9.3 11 Oeste 22 Oeste 0.2 -- -- 94
2019-03-30 07:00:00 8.1 9 Oeste 13 Oeste 0 -- -- 96
2019-03-30 06:00:00 8.2 8 Oeste 10 Oeste 0 -- -- 95
2019-03-30 05:00:00 8.4 6 Noroeste 11 Noroeste 0 -- -- 90
2019-03-30 04:00:00 9.2 3 Oeste 8 Sudoeste 0 -- -- 83
2019-03-30 03:00:00 8.9 4 Oeste 8 Oeste 0 -- -- 85
2019-03-30 02:00:00 8.8 4 Oeste 6 Sudoeste 0 -- -- 93
2019-03-30 01:00:00 8.4 6 Oeste 10 Oeste 0 -- -- 96
2019-03-30 00:00:00 8.2 5 Oeste 14 Oeste 0 -- -- 98
2019-03-29 23:00:00 8.8 9 Oeste 17 Oeste 0 -- -- 98
2019-03-29 22:00:00 9.3 11 Noroeste 19 Oeste 0 -- -- 98
2019-03-29 21:00:00 9.1 7 Noroeste 14 Oeste 0 -- -- 96
2019-03-29 20:00:00 10 8 Noroeste 12 Noroeste 0 -- -- 97
2019-03-29 19:00:00 11.1 4 Norte 8 Norte 0 -- -- 95
2019-03-29 18:00:00 11.5 3 Norte 6 Noroeste 0 -- -- 94
2019-03-29 17:00:00 12.3 5 Sudeste 9 Este 0 -- -- 87
2019-03-29 16:00:00 12.1 2 Oeste 12 Sudeste 0 -- -- 91
2019-03-29 15:00:00 11 10 Este 15 Este 0.2 -- -- 93
2019-03-29 14:00:00 11.6 2 Sur 12 Norte 0.2 -- -- 95
2019-03-29 13:00:00 13 6 Noroeste 12 Norte 0 -- -- 89
2019-03-29 12:00:00 12.6 5 Noroeste 13 Noroeste 0 -- -- 92
2019-03-29 11:00:00 13.5 8 Norte 14 Norte 0 -- -- 83
2019-03-29 10:00:00 16.3 7 Este 13 Este 0 -- -- 70
2019-03-29 09:00:00 12.2 3 Norte 6 Norte 0 -- -- 83
2019-03-29 08:00:00 9.9 0 Calma 6 Oeste 0 -- -- 86
2019-03-29 07:00:00 6.3 7 Sudeste 13 Sudeste 0 -- -- 99
2019-03-29 06:00:00 7.5 5 Sudeste 10 Este 0 -- -- 99
2019-03-29 05:00:00 8.1 8 Este 14 Sudeste 0 -- -- 99
2019-03-29 04:00:00 8 9 Sudeste 13 Sudeste 0 -- -- 96
2019-03-29 03:00:00 9.3 4 Norte 7 Oeste 0 -- -- 87
2019-03-29 02:00:00 9.8 4 Noroeste 9 Oeste 0 -- -- 89
2019-03-29 01:00:00 9.4 2 Oeste 9 Sudeste 0 -- -- 96
2019-03-29 00:00:00 9.2 9 Sudeste 12 Este 0 -- -- 97
2019-03-28 23:00:00 9.5 5 Sudeste 9 Sudeste 0 -- -- 96
2019-03-28 22:00:00 10 3 Oeste 6 Sur 0.2 -- -- 97
2019-03-28 21:00:00 10.3 0 Calma 4 Sur 2 -- -- 98
2019-03-28 20:00:00 10.6 3 Sudeste 5 Este 0.6 -- -- 98
2019-03-28 19:00:00 10.8 2 Sudeste 5 Noroeste 2.8 -- -- 98
2019-03-28 18:00:00 11 0 Calma 12 Norte 1.2 -- -- 98
2019-03-28 17:00:00 11.4 3 Este 10 Sudeste 0.2 -- -- 97
2019-03-28 16:00:00 11.7 5 Este 9 Este 0.2 -- -- 97
2019-03-28 15:00:00 12.2 4 Este 10 Este 0.2 -- -- 97
2019-03-28 14:00:00 11.8 5 Nordeste 12 Nordeste 7 -- -- 97
2019-03-28 13:00:00 12 3 Norte 13 Norte 1.4 -- -- 93
2019-03-28 12:00:00 13 4 Nordeste 19 Este 0 -- -- 88
2019-03-28 11:00:00 18.7 7 Este 16 Sudeste 0.2 -- -- 62
2019-03-28 10:00:00 15.4 9 Este 19 Este 0 -- -- 78
2019-03-28 09:00:00 15.2 6 Sudeste 14 Sudeste 0 -- -- 72
2019-03-28 08:00:00 9.4 5 Sudeste 12 Sudeste 0 -- -- 99
2019-03-28 07:00:00 8.3 7 Sudeste 10 Sudeste 0 -- -- 98
2019-03-28 06:00:00 8 6 Este 9 Este 0 -- -- 96
2019-03-28 05:00:00 9.2 3 Sudeste 5 Norte 0 -- -- 92
2019-03-28 04:00:00 8.6 2 Este 10 Sudeste 0 -- -- 96
2019-03-28 03:00:00 8.3 6 Sudeste 11 Sur 0 -- -- 97
2019-03-28 02:00:00 9.2 3 Sudoeste 5 Sudoeste 0 -- -- 98
2019-03-28 01:00:00 9.2 4 Noroeste 8 Oeste 0 -- -- 99
2019-03-28 00:00:00 9.3 6 Oeste 9 Oeste 0 -- -- 99
2019-03-27 23:00:00 10.5 6 Noroeste 14 Norte 0 -- -- 99
2019-03-27 22:00:00 10.7 5 Oeste 10 Noroeste 0 -- -- 98
2019-03-27 21:00:00 10.7 5 Noroeste 15 Oeste 0 -- -- 98
2019-03-27 20:00:00 10.7 8 Noroeste 17 Noroeste 0 -- -- 97
2019-03-27 19:00:00 11.3 8 Noroeste 13 Noroeste 0 -- -- 96
2019-03-27 18:00:00 12 6 Norte 17 Norte 0 -- -- 92
2019-03-27 17:00:00 12.3 10 Noroeste 20 Norte 0 -- -- 91
2019-03-27 16:00:00 12.3 11 Norte 18 Norte 0 -- -- 92
2019-03-27 15:00:00 12.3 8 Noroeste 18 Norte 0 -- -- 93
2019-03-27 14:00:00 13.4 8 Norte 19 Norte 0 -- -- 88
2019-03-27 13:00:00 14.9 11 Norte 20 Noroeste 0 -- -- 83
2019-03-27 12:00:00 14.8 9 Noroeste 17 Noroeste 0 -- -- 84
2019-03-27 11:00:00 13.6 10 Norte 17 Norte 0 -- -- 89
2019-03-27 10:00:00 12.4 6 Noroeste 18 Noroeste 0 -- -- 98
2019-03-27 09:00:00 11.3 12 Norte 21 Norte 0.2 -- -- 99
2019-03-27 08:00:00 10.7 10 Noroeste 20 Oeste 0 -- -- 99
2019-03-27 07:00:00 10.7 11 Noroeste 23 Norte 0 -- -- 98
2019-03-27 06:00:00 9.9 9 Noroeste 22 Noroeste 0 -- -- 98
2019-03-27 05:00:00 9.6 14 Oeste 20 Oeste 0 -- -- 98
2019-03-27 04:00:00 10.3 10 Noroeste 21 Oeste 0 -- -- 98
2019-03-27 03:00:00 10.2 11 Oeste 24 Oeste 0.2 -- -- 97
2019-03-27 02:00:00 10.3 12 Oeste 19 Oeste 0 -- -- 97
2019-03-27 01:00:00 9.6 14 Oeste 23 Oeste 0 -- -- 95
2019-03-27 00:00:00 9.5 13 Oeste 24 Sudoeste 0 -- -- 96
2019-03-26 23:00:00 10 15 Oeste 24 Oeste 0 -- -- 95
2019-03-26 22:00:00 9.4 14 Oeste 23 Oeste 0 -- -- 97
2019-03-26 21:00:00 9.6 12 Oeste 21 Noroeste 0 -- -- 97
2019-03-26 20:00:00 9.6 6 Noroeste 13 Oeste 0 -- -- 97
2019-03-26 19:00:00 10.7 8 Noroeste 18 Noroeste 0 -- -- 95
2019-03-26 18:00:00 13.6 10 Noroeste 19 Norte 0 -- -- 85
2019-03-26 17:00:00 14.3 9 Noroeste 15 Noroeste 0 -- -- 83
2019-03-26 16:00:00 16.7 8 Noroeste 14 Oeste 0 -- -- 74
2019-03-26 15:00:00 13.7 10 Noroeste 21 Norte 0 -- -- 89
2019-03-26 14:00:00 13.6 9 Noroeste 17 Norte 0 -- -- 91
2019-03-26 13:00:00 12.9 6 Noroeste 15 Noroeste 0.4 -- -- 94
2019-03-26 12:00:00 11.6 7 Norte 14 Norte 0.4 -- -- 93
2019-03-26 11:00:00 12.1 6 Noroeste 17 Noroeste 0.4 -- -- 93
2019-03-26 10:00:00 14.3 4 Norte 11 Noroeste 0 -- -- 72
2019-03-26 09:00:00 13.2 5 Noroeste 13 Norte 0 -- -- 79
2019-03-26 08:00:00 8.9 7 Oeste 18 Oeste 0 -- -- 94
2019-03-26 07:00:00 8 11 Oeste 14 Oeste 0 -- -- 92
2019-03-26 06:00:00 8.5 3 Noroeste 5 Noroeste 0 -- -- 90
2019-03-26 05:00:00 8.3 0 Calma 8 Nordeste 0 -- -- 89
2019-03-26 04:00:00 8.4 2 Sudeste 12 Sudeste 0 -- -- 90
2019-03-26 03:00:00 7.7 10 Sudeste 13 Sudeste 0 -- -- 95
2019-03-26 02:00:00 8 9 Este 10 Este 0 -- -- 94
2019-03-26 01:00:00 8.2 0 Calma 10 Norte 0 -- -- 97
2019-03-26 00:00:00 8.2 6 Sudeste 11 Sudeste 0 -- -- 96
2019-03-25 23:00:00 8.5 6 Sudeste 9 Sudeste 0 -- -- 98
2019-03-25 22:00:00 9.1 6 Este 13 Este 0 -- -- 98
2019-03-25 21:00:00 9.7 7 Oeste 18 Este 0 -- -- 98
2019-03-25 20:00:00 9.6 0 Calma 10 Noroeste 0 -- -- 97
2019-03-25 19:00:00 10.7 4 Noroeste 10 Este 0 -- -- 95
2019-03-25 18:00:00 11.7 10 Sudeste 26 Sudeste 0 -- -- 93
2019-03-25 17:00:00 11.8 19 Sudeste 26 Sudeste 0 -- -- 87
2019-03-25 16:00:00 10.4 12 Este 23 Sudeste 5.6 -- -- 99
2019-03-25 15:00:00 10.2 12 Este 18 Este 2 -- -- 96
2019-03-25 14:00:00 13.2 6 Este 15 Este 0 -- -- 79
2019-03-25 13:00:00 11.7 5 Norte 12 Noroeste 0 -- -- 89
2019-03-25 12:00:00 15.2 7 Norte 13 Norte 0 -- -- 66
2019-03-25 11:00:00 15.9 3 Norte 10 Noroeste 0 -- -- 60
2019-03-25 10:00:00 12.4 5 Noroeste 10 Noroeste 0 -- -- 72
2019-03-25 09:00:00 10.4 5 Oeste 9 Oeste 0 -- -- 78
2019-03-25 08:00:00 10 0 Calma 11 Sudeste 0 -- -- 69
2019-03-25 07:00:00 7.3 8 Sudeste 11 Sudeste 0 -- -- 88
2019-03-25 06:00:00 8.2 0 Calma 9 Noroeste 0 -- -- 82
2019-03-25 05:00:00 7.7 4 Sudeste 12 Sudeste 0 -- -- 85
2019-03-25 04:00:00 7.9 6 Sudeste 9 Sudeste 0 -- -- 86
2019-03-25 03:00:00 9 2 Sudoeste 8 Este 0 -- -- 82
2019-03-25 02:00:00 8.1 6 Este 8 Sudeste 0 -- -- 88
2019-03-25 01:00:00 7.3 9 Sudeste 17 Sudeste 0 -- -- 96
2019-03-25 00:00:00 7.2 9 Sudeste 11 Sudeste 0 -- -- 95